createdAt,value
2022-11-21T00:01:18.221Z,4.80
2022-11-21T00:03:45.347Z,4.80
2022-11-21T00:06:12.469Z,4.80
2022-11-21T00:08:39.416Z,4.80
2022-11-21T00:11:06.323Z,4.80
2022-11-21T00:13:33.378Z,4.70
2022-11-21T00:16:05.545Z,4.70
2022-11-21T00:18:34.642Z,4.70
2022-11-21T00:21:20.614Z,4.70
2022-11-21T00:23:48.229Z,4.70
2022-11-21T00:26:16.419Z,4.70
2022-11-21T00:28:43.654Z,4.60
2022-11-21T00:31:21.610Z,4.60
2022-11-21T00:33:48.580Z,4.60
2022-11-21T00:36:15.551Z,4.60
2022-11-21T00:38:42.533Z,4.60
2022-11-21T00:41:09.441Z,4.60
2022-11-21T00:43:36.315Z,4.60
2022-11-21T00:46:04.245Z,4.60
2022-11-21T00:48:32.612Z,4.60
2022-11-21T00:51:00.704Z,4.60
2022-11-21T00:53:28.430Z,4.60
2022-11-21T00:55:55.664Z,4.60
2022-11-21T00:58:22.571Z,4.60
2022-11-21T01:00:49.812Z,4.60
2022-11-21T01:03:17.032Z,4.60
2022-11-21T01:05:44.004Z,4.50
2022-11-21T01:08:10.919Z,4.50
2022-11-21T01:10:37.862Z,4.50
2022-11-21T01:13:04.994Z,4.50
2022-11-21T01:15:31.943Z,4.50
2022-11-21T01:17:58.831Z,4.50
2022-11-21T01:20:25.992Z,4.40
2022-11-21T01:22:52.896Z,4.50
2022-11-21T01:25:19.791Z,4.40
2022-11-21T01:27:46.655Z,4.40
2022-11-21T01:30:14.576Z,4.50
2022-11-21T01:32:41.445Z,4.50
2022-11-21T01:35:08.744Z,4.30
2022-11-21T01:37:35.608Z,4.30
2022-11-21T01:40:02.575Z,4.30
2022-11-21T01:42:29.459Z,4.20
2022-11-21T01:44:56.406Z,4.20
2022-11-21T01:47:23.668Z,4.20
2022-11-21T01:49:52.359Z,4.10
2022-11-21T01:52:30.161Z,4.10
2022-11-21T01:55:05.024Z,4.10
2022-11-21T01:57:38.714Z,4.00
2022-11-21T02:00:21.642Z,4.00
2022-11-21T02:02:54.151Z,4.10
2022-11-21T02:05:28.016Z,4.10
2022-11-21T02:08:02.518Z,4.10
2022-11-21T02:10:29.596Z,4.10
2022-11-21T02:12:58.916Z,4.20
2022-11-21T02:15:28.096Z,4.10
2022-11-21T02:17:55.576Z,4.20
2022-11-21T02:20:28.354Z,4.60
2022-11-21T02:23:29.109Z,4.20
2022-11-21T02:25:56.154Z,4.20
2022-11-21T02:28:24.639Z,4.20
2022-11-21T02:30:51.575Z,4.40
2022-11-21T02:33:18.528Z,4.10
2022-11-21T02:35:45.501Z,4.10
2022-11-21T02:38:22.614Z,4.70
2022-11-21T02:40:56.381Z,4.00
2022-11-21T02:43:25.626Z,4.00
2022-11-21T02:45:52.560Z,3.90
2022-11-21T02:48:19.520Z,3.90
2022-11-21T02:50:47.552Z,3.90
2022-11-21T02:53:17.092Z,3.90
2022-11-21T02:55:44.985Z,3.80
2022-11-21T02:58:12.946Z,3.90
2022-11-21T03:00:42.070Z,3.80
2022-11-21T03:03:09.433Z,3.90
2022-11-21T03:05:37.199Z,3.90
2022-11-21T03:08:05.136Z,4.60
2022-11-21T03:10:32.505Z,3.90
2022-11-21T03:13:02.244Z,4.00
2022-11-21T03:15:31.182Z,4.00
2022-11-21T03:17:58.565Z,4.00
2022-11-21T03:20:25.544Z,4.00
2022-11-21T03:22:53.626Z,4.00
2022-11-21T03:25:21.211Z,4.00
2022-11-21T03:27:51.394Z,4.10
2022-11-21T03:30:18.816Z,4.00
2022-11-21T03:32:45.742Z,4.10
2022-11-21T03:35:12.729Z,4.10
2022-11-21T03:37:39.600Z,4.10
2022-11-21T03:40:07.306Z,4.10
2022-11-21T03:42:34.223Z,4.10
2022-11-21T03:45:01.171Z,4.20
2022-11-21T03:47:28.087Z,4.20
2022-11-21T03:49:55.017Z,4.20
2022-11-21T03:52:22.010Z,4.10
2022-11-21T03:54:48.932Z,4.00
2022-11-21T03:57:15.947Z,4.00
2022-11-21T03:59:42.902Z,4.00
2022-11-21T04:02:09.818Z,4.10
2022-11-21T04:04:36.715Z,4.10
2022-11-21T04:07:03.728Z,4.00
2022-11-21T04:09:30.683Z,4.00
2022-11-21T04:11:57.606Z,3.90
2022-11-21T04:14:24.498Z,3.90
2022-11-21T04:16:51.460Z,3.90
2022-11-21T04:19:18.328Z,4.00
2022-11-21T04:21:45.240Z,4.30
2022-11-21T04:24:12.217Z,3.90
2022-11-21T04:26:39.150Z,3.90
2022-11-21T04:29:06.078Z,3.80
2022-11-21T04:31:33.009Z,3.80
2022-11-21T04:33:59.928Z,3.70
2022-11-21T04:36:26.928Z,3.70
2022-11-21T04:38:53.862Z,3.70
2022-11-21T04:41:20.771Z,3.70
2022-11-21T04:43:47.697Z,3.70
2022-11-21T04:46:14.688Z,3.70
2022-11-21T04:48:41.533Z,3.60
2022-11-21T04:51:08.446Z,3.60
2022-11-21T04:53:38.664Z,3.60
2022-11-21T04:56:09.782Z,3.60
2022-11-21T04:58:37.229Z,3.60
2022-11-21T05:01:08.956Z,3.50
2022-11-21T05:03:36.504Z,3.60
2022-11-21T05:06:04.002Z,3.60
2022-11-21T05:08:30.974Z,3.60
2022-11-21T05:11:16.380Z,3.60
2022-11-21T05:13:43.258Z,3.70
2022-11-21T05:16:10.200Z,3.70
2022-11-21T05:18:37.085Z,3.70
2022-11-21T05:21:04.202Z,3.70
2022-11-21T05:23:31.099Z,3.70
2022-11-21T05:25:58.146Z,3.70
2022-11-21T05:28:25.090Z,3.80
2022-11-21T05:30:52.013Z,3.80
2022-11-21T05:33:19.372Z,3.80
2022-11-21T05:35:46.486Z,3.80
2022-11-21T05:38:13.657Z,3.90
2022-11-21T05:40:40.693Z,3.90
2022-11-21T05:43:26.655Z,4.00
2022-11-21T05:45:53.724Z,4.00
2022-11-21T05:48:20.620Z,4.00
2022-11-21T05:50:49.622Z,4.10
2022-11-21T05:53:16.840Z,4.20
2022-11-21T05:55:44.025Z,4.20
2022-11-21T05:58:11.583Z,4.20
2022-11-21T06:00:39.065Z,4.20
2022-11-21T06:03:25.695Z,4.20
2022-11-21T06:05:58.467Z,4.20
2022-11-21T06:08:25.844Z,4.20
2022-11-21T06:10:52.803Z,4.10
2022-11-21T06:13:22.457Z,4.10
2022-11-21T06:15:59.463Z,4.10
2022-11-21T06:18:27.696Z,4.10
2022-11-21T06:21:00.388Z,4.20
2022-11-21T06:23:27.440Z,4.10
2022-11-21T06:25:58.908Z,4.10
2022-11-21T06:28:27.288Z,4.00
2022-11-21T06:30:54.384Z,4.10
2022-11-21T06:33:22.112Z,4.10
2022-11-21T06:35:49.021Z,4.20
2022-11-21T06:38:18.738Z,4.20
2022-11-21T06:40:45.827Z,4.20
2022-11-21T06:43:12.918Z,4.20
2022-11-21T06:45:39.965Z,4.10
2022-11-21T06:48:07.101Z,4.10
2022-11-21T06:50:34.249Z,4.10
2022-11-21T06:53:01.445Z,4.30
2022-11-21T06:55:29.797Z,4.10
2022-11-21T06:58:00.230Z,4.00
2022-11-21T07:00:30.601Z,4.00
2022-11-21T07:03:03.424Z,4.60
2022-11-21T07:05:31.454Z,4.00
2022-11-21T07:08:02.670Z,4.00
2022-11-21T07:10:30.902Z,4.10
2022-11-21T07:13:19.520Z,4.10
2022-11-21T07:15:48.026Z,4.10
2022-11-21T07:18:15.167Z,4.10
2022-11-21T07:20:42.226Z,4.20
2022-11-21T07:23:09.468Z,4.00
2022-11-21T07:25:37.071Z,4.10
2022-11-21T07:28:04.858Z,4.00
2022-11-21T07:30:32.096Z,4.00
2022-11-21T07:33:00.611Z,4.00
2022-11-21T07:35:28.439Z,4.10
2022-11-21T07:37:55.456Z,4.10
2022-11-21T07:40:22.445Z,4.30
2022-11-21T07:42:49.653Z,4.20
2022-11-21T07:45:17.012Z,4.30
2022-11-21T07:47:44.381Z,4.30
2022-11-21T07:50:12.521Z,4.30
2022-11-21T07:52:39.677Z,4.30
2022-11-21T07:55:07.142Z,4.30
2022-11-21T07:57:34.294Z,4.30
2022-11-21T08:00:01.238Z,4.30
2022-11-21T08:02:31.221Z,4.30
2022-11-21T08:04:58.137Z,4.30
2022-11-21T08:07:25.199Z,4.30
2022-11-21T08:09:52.180Z,4.30
2022-11-21T08:12:19.190Z,4.40
2022-11-21T08:14:46.099Z,4.40
2022-11-21T08:17:14.113Z,4.50
2022-11-21T08:19:45.887Z,4.60
2022-11-21T08:22:12.776Z,4.60
2022-11-21T08:24:39.682Z,4.70
2022-11-21T08:27:06.637Z,4.70
2022-11-21T08:29:33.535Z,4.70
2022-11-21T08:32:01.019Z,4.80
2022-11-21T08:34:30.714Z,4.80
2022-11-21T08:36:58.958Z,4.80
2022-11-21T08:39:26.516Z,4.90
2022-11-21T08:42:03.097Z,4.80
2022-11-21T08:44:34.520Z,4.80
2022-11-21T08:47:01.990Z,4.80
2022-11-21T08:49:29.982Z,4.80
2022-11-21T08:51:56.942Z,4.80
2022-11-21T08:54:24.937Z,4.80
2022-11-21T08:56:51.952Z,4.90
2022-11-21T08:59:18.939Z,4.90
2022-11-21T09:01:45.893Z,4.90
2022-11-21T09:04:12.950Z,4.90
2022-11-21T09:06:40.139Z,5.00
2022-11-21T09:09:07.823Z,5.00
2022-11-21T09:11:35.920Z,4.90
2022-11-21T09:14:21.279Z,5.00
2022-11-21T09:17:06.698Z,4.90
2022-11-21T09:19:33.646Z,4.90
2022-11-21T09:22:00.667Z,4.90
2022-11-21T09:24:27.594Z,4.90
2022-11-21T09:26:54.564Z,5.00
2022-11-21T09:29:21.458Z,4.90
2022-11-21T09:31:48.446Z,4.90
2022-11-21T09:34:15.409Z,4.90
2022-11-21T09:36:42.338Z,5.00
2022-11-21T09:39:09.195Z,4.90
2022-11-21T09:41:59.768Z,4.90
2022-11-21T09:44:45.478Z,4.90
2022-11-21T09:47:36.883Z,4.80
2022-11-21T09:50:14.214Z,4.80
2022-11-21T09:52:53.452Z,4.80
2022-11-21T09:55:26.377Z,4.70
2022-11-21T09:57:53.552Z,4.80
2022-11-21T10:00:23.618Z,4.70
2022-11-21T10:02:52.364Z,4.70
2022-11-21T10:05:29.311Z,4.70
2022-11-21T10:08:01.491Z,4.70
2022-11-21T10:10:43.570Z,4.60
2022-11-21T10:13:23.015Z,4.70
2022-11-21T10:16:13.012Z,4.80
2022-11-21T10:19:07.872Z,4.80
2022-11-21T10:22:08.621Z,4.80
2022-11-21T10:25:01.008Z,4.80
2022-11-21T10:27:37.545Z,4.80
2022-11-21T10:30:15.859Z,4.80
2022-11-21T10:32:47.387Z,4.80
2022-11-21T10:35:20.800Z,4.90
2022-11-21T10:37:54.252Z,4.80
2022-11-21T10:40:32.207Z,4.90
2022-11-21T10:43:24.923Z,4.80
2022-11-21T10:45:52.655Z,4.90
2022-11-21T10:48:19.592Z,4.90
2022-11-21T10:51:22.803Z,4.90
2022-11-21T10:54:24.793Z,4.90
2022-11-21T10:56:53.829Z,4.90
2022-11-21T10:59:30.362Z,5.00
2022-11-21T11:02:20.893Z,5.00
2022-11-21T11:04:52.232Z,5.00
2022-11-21T11:07:28.333Z,5.10
2022-11-21T11:10:27.590Z,5.00
2022-11-21T11:13:50.871Z,5.10
2022-11-21T11:16:21.760Z,5.10
2022-11-21T11:19:01.256Z,5.10
2022-11-21T11:21:30.946Z,5.20
2022-11-21T11:24:21.906Z,5.20
2022-11-21T11:26:49.113Z,5.20
2022-11-21T11:29:22.191Z,5.20
2022-11-21T11:32:27.972Z,5.20
2022-11-21T11:35:05.097Z,5.20
2022-11-21T11:38:05.855Z,5.30
2022-11-21T11:40:43.827Z,5.30
2022-11-21T11:44:07.140Z,5.20
2022-11-21T11:47:03.681Z,5.30
2022-11-21T11:49:30.525Z,5.30
2022-11-21T11:52:02.559Z,5.30
2022-11-21T11:54:37.580Z,5.30
2022-11-21T11:57:04.684Z,5.40
2022-11-21T11:59:49.184Z,5.40
2022-11-21T12:02:22.810Z,5.40
2022-11-21T12:04:59.652Z,5.40
2022-11-21T12:08:40.219Z,5.40
2022-11-21T12:11:01.313Z,5.40
2022-11-21T12:13:30.015Z,5.40
2022-11-21T12:16:08.608Z,5.30
2022-11-21T12:18:53.259Z,5.40
2022-11-21T12:21:20.995Z,5.30
2022-11-21T12:23:56.915Z,5.30
2022-11-21T12:26:49.460Z,5.40
2022-11-21T12:29:34.936Z,5.30
2022-11-21T12:32:43.381Z,5.40
2022-11-21T12:35:39.244Z,5.30
2022-11-21T12:38:22.568Z,5.30
2022-11-21T12:40:52.410Z,5.30
2022-11-21T12:43:41.885Z,5.30
2022-11-21T12:46:39.629Z,5.30
2022-11-21T12:49:37.873Z,5.30
2022-11-21T12:52:41.255Z,5.30
2022-11-21T12:55:08.458Z,5.30
2022-11-21T12:58:03.574Z,5.30
2022-11-21T13:00:45.468Z,5.30
2022-11-21T13:03:18.118Z,5.30
2022-11-21T13:05:49.090Z,5.30
2022-11-21T13:08:25.761Z,5.30
2022-11-21T13:11:32.662Z,5.20
2022-11-21T13:14:12.647Z,5.20
2022-11-21T13:16:46.653Z,5.20
2022-11-21T13:19:23.304Z,5.20
2022-11-21T13:21:53.127Z,5.10
2022-11-21T13:24:47.045Z,5.10
2022-11-21T13:27:46.642Z,5.10
2022-11-21T13:30:15.116Z,5.10
2022-11-21T13:32:43.595Z,5.20
2022-11-21T13:35:19.588Z,5.30
2022-11-21T13:37:49.692Z,5.20
2022-11-21T13:40:31.510Z,5.20
2022-11-21T13:43:33.140Z,5.20
2022-11-21T13:46:01.149Z,5.20
2022-11-21T13:48:37.174Z,5.20
2022-11-21T13:51:07.110Z,5.40
2022-11-21T13:54:03.096Z,5.20
2022-11-21T13:56:38.619Z,5.20
2022-11-21T13:59:17.538Z,5.30
2022-11-21T14:02:19.759Z,5.30
2022-11-21T14:05:18.540Z,5.30
2022-11-21T14:07:47.749Z,5.20
2022-11-21T14:10:35.833Z,5.30
2022-11-21T14:13:03.934Z,5.20
2022-11-21T14:16:13.656Z,5.20
2022-11-21T14:18:43.920Z,5.30
2022-11-21T14:21:22.595Z,5.20
2022-11-21T14:23:49.613Z,5.20
2022-11-21T14:26:20.018Z,5.20
2022-11-21T14:28:47.855Z,5.20
2022-11-21T14:31:15.390Z,5.10
2022-11-21T14:33:43.620Z,5.10
2022-11-21T14:36:18.561Z,5.10
2022-11-21T14:39:07.685Z,5.10
2022-11-21T14:41:39.240Z,5.10
2022-11-21T14:44:15.010Z,5.40
2022-11-21T14:46:43.375Z,5.50
2022-11-21T14:49:22.295Z,5.20
2022-11-21T14:52:12.164Z,5.20
2022-11-21T14:55:06.441Z,5.20
2022-11-21T14:57:37.261Z,5.30
2022-11-21T15:00:06.794Z,5.30
2022-11-21T15:02:34.800Z,5.30
2022-11-21T15:05:07.552Z,5.30
2022-11-21T15:07:43.749Z,5.30
2022-11-21T15:10:31.154Z,5.40
2022-11-21T15:13:13.641Z,5.30
2022-11-21T15:15:47.212Z,5.30
2022-11-21T15:18:27.395Z,5.30
2022-11-21T15:21:01.184Z,5.80
2022-11-21T15:23:33.697Z,5.30
2022-11-21T15:26:01.726Z,5.30
2022-11-21T15:28:30.046Z,5.40
2022-11-21T15:31:17.322Z,5.30
2022-11-21T15:34:33.163Z,5.30
2022-11-21T15:37:24.000Z,5.30
2022-11-21T15:39:53.059Z,5.30
2022-11-21T15:42:32.222Z,5.30
2022-11-21T15:44:59.281Z,5.30
2022-11-21T15:47:26.248Z,5.40
2022-11-21T15:49:53.223Z,5.40
2022-11-21T15:52:20.637Z,5.40
2022-11-21T15:54:48.345Z,5.40
2022-11-21T15:57:17.119Z,5.40
2022-11-21T15:59:45.182Z,5.30
2022-11-21T16:02:14.418Z,5.50
2022-11-21T16:04:42.245Z,5.40
2022-11-21T16:07:09.594Z,5.40
2022-11-21T16:09:37.505Z,5.40
2022-11-21T16:12:04.566Z,5.40
2022-11-21T16:14:31.464Z,5.40
2022-11-21T16:16:58.469Z,5.40
2022-11-21T16:19:25.968Z,5.30
2022-11-21T16:21:53.747Z,5.20
2022-11-21T16:24:20.835Z,5.10
2022-11-21T16:26:49.292Z,5.10
2022-11-21T16:29:16.309Z,5.00
2022-11-21T16:31:43.167Z,5.20
2022-11-21T16:34:10.137Z,5.20
2022-11-21T16:36:37.380Z,5.20
2022-11-21T16:39:10.011Z,5.30
2022-11-21T16:41:41.185Z,5.30
2022-11-21T16:44:14.181Z,5.90
2022-11-21T16:46:43.871Z,5.30
2022-11-21T16:49:10.926Z,4.80
2022-11-21T16:51:38.045Z,5.30
2022-11-21T16:54:08.811Z,5.30
2022-11-21T16:56:36.210Z,5.30
2022-11-21T16:59:03.327Z,5.30
2022-11-21T17:01:30.438Z,5.30
2022-11-21T17:03:57.672Z,5.40
2022-11-21T17:06:28.672Z,5.40
2022-11-21T17:08:55.829Z,5.40
2022-11-21T17:11:29.022Z,5.30
2022-11-21T17:13:59.923Z,5.40
2022-11-21T17:16:27.310Z,5.30
2022-11-21T17:18:55.851Z,5.30
2022-11-21T17:21:23.317Z,5.30
2022-11-21T17:23:50.769Z,5.30
2022-11-21T17:26:20.496Z,5.30
2022-11-21T17:29:01.209Z,5.30
2022-11-21T17:31:28.565Z,5.30
2022-11-21T17:34:00.827Z,5.30
2022-11-21T17:36:30.372Z,5.30
2022-11-21T17:38:57.325Z,5.30
2022-11-21T17:41:25.353Z,5.60
2022-11-21T17:43:57.188Z,5.40
2022-11-21T17:46:25.735Z,5.30
2022-11-21T17:48:57.246Z,5.40
2022-11-21T17:51:33.442Z,5.30
2022-11-21T17:54:01.744Z,5.40
2022-11-21T17:56:31.049Z,5.30
2022-11-21T17:58:58.058Z,5.30
2022-11-21T18:01:25.439Z,5.50
2022-11-21T18:03:58.426Z,5.30
2022-11-21T18:06:28.431Z,5.30
2022-11-21T18:08:59.313Z,5.30
2022-11-21T18:11:36.023Z,5.30
2022-11-21T18:14:07.337Z,5.30
2022-11-21T18:16:35.001Z,5.20
2022-11-21T18:19:02.436Z,5.20
2022-11-21T18:21:35.392Z,5.20
2022-11-21T18:24:02.420Z,5.20
2022-11-21T18:26:31.984Z,5.20
2022-11-21T18:29:28.801Z,5.10
2022-11-21T18:31:48.857Z,5.10
2022-11-21T18:34:15.757Z,5.10
2022-11-21T18:36:42.748Z,5.10
2022-11-21T18:39:14.812Z,5.10
2022-11-21T18:41:43.232Z,5.00
2022-11-21T18:44:11.473Z,5.00
2022-11-21T18:46:40.496Z,5.00
2022-11-21T18:49:08.449Z,5.00
2022-11-21T18:51:36.303Z,5.00
2022-11-21T18:54:07.441Z,4.90
2022-11-21T18:56:35.858Z,4.90
2022-11-21T18:59:04.541Z,5.00
2022-11-21T19:01:32.889Z,4.90
2022-11-21T19:04:00.199Z,4.90
2022-11-21T19:06:28.075Z,4.90
2022-11-21T19:08:57.132Z,4.90
2022-11-21T19:11:26.441Z,4.90
2022-11-21T19:13:54.827Z,4.90
2022-11-21T19:16:25.022Z,4.90
2022-11-21T19:21:41.621Z,4.90
2022-11-21T19:24:14.637Z,5.90
2022-11-21T19:26:42.632Z,4.90
2022-11-21T19:29:10.229Z,5.00
2022-11-21T19:31:43.024Z,5.00
2022-11-21T19:34:11.794Z,5.00
2022-11-21T19:36:39.579Z,5.00
2022-11-21T19:39:06.825Z,5.00
2022-11-21T19:41:33.752Z,4.90
2022-11-21T19:44:01.599Z,5.00
2022-11-21T19:46:33.400Z,5.00
2022-11-21T19:49:01.303Z,5.00
2022-11-21T19:51:33.735Z,5.00
2022-11-21T19:54:05.177Z,5.00
2022-11-21T19:56:32.503Z,5.10
2022-11-21T19:58:59.615Z,5.10
2022-11-21T20:01:29.124Z,5.10
2022-11-21T20:03:59.086Z,5.10
2022-11-21T20:06:33.862Z,5.20
2022-11-21T20:09:04.719Z,5.20
2022-11-21T20:11:32.735Z,5.20
2022-11-21T20:13:59.932Z,5.20
2022-11-21T20:16:38.596Z,5.20
2022-11-21T20:19:08.395Z,5.20
2022-11-21T20:21:35.854Z,5.20
2022-11-21T20:24:03.688Z,5.20
2022-11-21T20:26:30.833Z,5.20
2022-11-21T20:28:57.922Z,5.10
2022-11-21T20:31:27.862Z,5.20
2022-11-21T20:34:00.375Z,5.20
2022-11-21T20:36:29.567Z,5.20
2022-11-21T20:38:58.963Z,5.20
2022-11-21T20:41:28.137Z,5.20
2022-11-21T20:46:48.443Z,4.50
2022-11-21T20:49:15.564Z,6.30
2022-11-21T20:53:36.619Z,5.50
2022-11-21T20:54:35.189Z,5.20
2022-11-21T20:57:02.058Z,5.10
2022-11-21T20:59:29.361Z,5.30
2022-11-21T21:01:56.777Z,5.50
2022-11-21T21:04:23.674Z,5.10
2022-11-21T21:06:50.673Z,5.50
2022-11-21T21:09:17.591Z,6.00
2022-11-21T21:11:52.185Z,5.20
2022-11-21T21:14:20.724Z,5.60
2022-11-21T21:16:48.113Z,5.10
2022-11-21T21:19:15.214Z,6.20
2022-11-21T21:21:42.227Z,6.90
2022-11-21T21:24:11.047Z,6.70
2022-11-21T21:26:47.022Z,5.80
2022-11-21T21:29:17.932Z,5.90
2022-11-21T21:31:50.510Z,5.10
2022-11-21T21:34:20.125Z,5.20
2022-11-21T21:36:47.297Z,5.60
2022-11-21T21:39:14.327Z,5.20
2022-11-21T21:41:44.626Z,5.50
2022-11-21T21:44:12.094Z,6.50
2022-11-21T21:46:39.034Z,6.50
2022-11-21T21:49:05.901Z,5.60
2022-11-21T21:51:32.752Z,5.40
2022-11-21T21:54:00.278Z,5.60
2022-11-21T21:56:28.648Z,5.00
2022-11-21T21:58:57.558Z,5.90
2022-11-21T22:01:32.400Z,5.70
2022-11-21T22:04:01.970Z,5.10
2022-11-21T22:06:29.790Z,5.80
2022-11-21T22:08:56.749Z,5.50
2022-11-21T22:11:26.524Z,5.50
2022-11-21T22:13:55.574Z,5.00
2022-11-21T22:16:22.935Z,6.70
2022-11-21T22:18:50.132Z,5.60
2022-11-21T22:21:26.808Z,5.30
2022-11-21T22:26:42.541Z,5.60
2022-11-21T22:29:09.399Z,6.30
2022-11-21T22:31:37.445Z,5.50
2022-11-21T22:34:04.902Z,6.10
2022-11-21T22:36:31.914Z,6.10
2022-11-21T22:38:58.773Z,6.30
2022-11-21T22:41:27.117Z,5.00
2022-11-21T22:43:58.708Z,5.50
2022-11-21T22:46:28.332Z,6.00
2022-11-21T22:48:55.397Z,5.10
2022-11-21T22:51:24.482Z,5.10
2022-11-21T22:53:51.957Z,6.40
2022-11-21T22:56:21.403Z,5.40
2022-11-21T22:58:48.802Z,5.20
2022-11-21T23:01:21.279Z,5.90
2022-11-21T23:03:49.179Z,5.20
2022-11-21T23:06:24.659Z,5.10
2022-11-21T23:08:53.494Z,6.40
2022-11-21T23:11:26.089Z,5.50
2022-11-21T23:13:54.075Z,5.40
2022-11-21T23:16:21.303Z,5.20
2022-11-21T23:18:48.859Z,5.70
2022-11-21T23:21:15.800Z,5.10
2022-11-21T23:23:43.993Z,5.10
2022-11-21T23:26:11.905Z,6.40
2022-11-21T23:28:38.938Z,5.70
2022-11-21T23:31:05.808Z,5.10
2022-11-21T23:33:32.721Z,5.80
2022-11-21T23:35:59.601Z,6.20
2022-11-21T23:38:26.679Z,6.00
2022-11-21T23:40:53.661Z,5.30
2022-11-21T23:43:20.587Z,5.20
2022-11-21T23:45:52.306Z,6.30
2022-11-21T23:48:19.961Z,5.90
2022-11-21T23:50:47.896Z,5.20
2022-11-21T23:53:14.800Z,5.10
2022-11-21T23:55:43.629Z,5.20
2022-11-21T23:58:12.303Z,6.40
